sensor_id;sensor_type;location;lat;lon;timestamp;pressure;altitude;pressure_sealevel;temperature;humidity
14612;BME280;7392;52.078;11.650;2023-01-30T00:01:14;100748.59;;;0.07;100.00
14612;BME280;7392;52.078;11.650;2023-01-30T00:03:43;100739.13;;;0.09;100.00
14612;BME280;7392;52.078;11.650;2023-01-30T00:06:11;100734.06;;;0.13;100.00
14612;BME280;7392;52.078;11.650;2023-01-30T00:08:39;100721.06;;;0.15;100.00
14612;BME280;7392;52.078;11.650;2023-01-30T00:11:08;100715.91;;;0.16;100.00
14612;BME280;7392;52.078;11.650;2023-01-30T00:13:37;100701.13;;;0.17;100.00
14612;BME280;7392;52.078;11.650;2023-01-30T00:16:05;100700.38;;;0.20;100.00
14612;BME280;7392;52.078;11.650;2023-01-30T00:18:35;100687.31;;;0.20;100.00
14612;BME280;7392;52.078;11.650;2023-01-30T00:21:06;100668.19;;;0.21;100.00
14612;BME280;7392;52.078;11.650;2023-01-30T00:23:35;100666.53;;;0.23;100.00
14612;BME280;7392;52.078;11.650;2023-01-30T00:26:03;100659.50;;;0.22;100.00
14612;BME280;7392;52.078;11.650;2023-01-30T00:28:32;100644.69;;;0.21;100.00
14612;BME280;7392;52.078;11.650;2023-01-30T00:31:00;100639.41;;;0.19;100.00
14612;BME280;7392;52.078;11.650;2023-01-30T00:33:28;100645.50;;;0.20;100.00
14612;BME280;7392;52.078;11.650;2023-01-30T00:35:56;100637.59;;;0.18;100.00
14612;BME280;7392;52.078;11.650;2023-01-30T00:38:25;100655.88;;;0.18;100.00
14612;BME280;7392;52.078;11.650;2023-01-30T00:40:52;100650.66;;;0.18;100.00
14612;BME280;7392;52.078;11.650;2023-01-30T00:43:20;100642.88;;;0.20;100.00
14612;BME280;7392;52.078;11.650;2023-01-30T00:46:11;100648.19;;;0.21;100.00
14612;BME280;7392;52.078;11.650;2023-01-30T00:48:58;100634.25;;;0.22;100.00
14612;BME280;7392;52.078;11.650;2023-01-30T00:51:27;100623.88;;;0.24;100.00
14612;BME280;7392;52.078;11.650;2023-01-30T00:53:55;100590.09;;;0.28;100.00
14612;BME280;7392;52.078;11.650;2023-01-30T00:56:23;100563.19;;;0.31;100.00
14612;BME280;7392;52.078;11.650;2023-01-30T00:58:51;100558.91;;;0.33;100.00
14612;BME280;7392;52.078;11.650;2023-01-30T01:01:18;100569.47;;;0.36;100.00
14612;BME280;7392;52.078;11.650;2023-01-30T01:03:48;100568.81;;;0.42;100.00
14612;BME280;7392;52.078;11.650;2023-01-30T01:06:16;100568.19;;;0.49;100.00
14612;BME280;7392;52.078;11.650;2023-01-30T01:08:44;100563.19;;;0.55;100.00
14612;BME280;7392;52.078;11.650;2023-01-30T01:11:13;100570.41;;;0.62;100.00
14612;BME280;7392;52.078;11.650;2023-01-30T01:13:53;100584.47;;;0.66;100.00
14612;BME280;7392;52.078;11.650;2023-01-30T01:16:22;100597.66;;;0.69;100.00
14612;BME280;7392;52.078;11.650;2023-01-30T01:18:50;100602.09;;;0.71;100.00
14612;BME280;7392;52.078;11.650;2023-01-30T01:21:19;100582.13;;;0.73;100.00
14612;BME280;7392;52.078;11.650;2023-01-30T01:23:48;100578.78;;;0.78;100.00
14612;BME280;7392;52.078;11.650;2023-01-30T01:26:18;100578.03;;;0.82;100.00
14612;BME280;7392;52.078;11.650;2023-01-30T01:28:46;100582.56;;;0.86;100.00
14612;BME280;7392;52.078;11.650;2023-01-30T01:31:15;100568.63;;;0.87;100.00
14612;BME280;7392;52.078;11.650;2023-01-30T01:33:43;100554.03;;;0.93;100.00
14612;BME280;7392;52.078;11.650;2023-01-30T01:36:10;100544.56;;;0.97;100.00
14612;BME280;7392;52.078;11.650;2023-01-30T01:38:55;100533.31;;;1.00;100.00
14612;BME280;7392;52.078;11.650;2023-01-30T01:41:24;100514.16;;;1.01;100.00
14612;BME280;7392;52.078;11.650;2023-01-30T01:44:03;100510.56;;;0.97;100.00
14612;BME280;7392;52.078;11.650;2023-01-30T01:46:35;100503.56;;;0.96;100.00
14612;BME280;7392;52.078;11.650;2023-01-30T01:49:09;100498.22;;;0.93;100.00
14612;BME280;7392;52.078;11.650;2023-01-30T01:51:41;100491.22;;;0.92;100.00
14612;BME280;7392;52.078;11.650;2023-01-30T01:54:13;100495.56;;;0.91;100.00
14612;BME280;7392;52.078;11.650;2023-01-30T01:56:45;100489.50;;;0.92;100.00
14612;BME280;7392;52.078;11.650;2023-01-30T01:59:21;100486.13;;;0.97;100.00
14612;BME280;7392;52.078;11.650;2023-01-30T02:01:52;100473.22;;;1.01;100.00
14612;BME280;7392;52.078;11.650;2023-01-30T02:04:23;100475.06;;;1.05;100.00
14612;BME280;7392;52.078;11.650;2023-01-30T02:07:10;100458.59;;;1.08;100.00
14612;BME280;7392;52.078;11.650;2023-01-30T02:09:37;100449.13;;;1.11;100.00
14612;BME280;7392;52.078;11.650;2023-01-30T02:12:07;100444.78;;;1.12;100.00
14612;BME280;7392;52.078;11.650;2023-01-30T02:14:36;100436.94;;;1.12;100.00
14612;BME280;7392;52.078;11.650;2023-01-30T02:17:04;100436.94;;;1.12;100.00
14612;BME280;7392;52.078;11.650;2023-01-30T02:19:41;100422.97;;;1.11;100.00
14612;BME280;7392;52.078;11.650;2023-01-30T02:22:30;100423.84;;;1.12;100.00
14612;BME280;7392;52.078;11.650;2023-01-30T02:25:20;100422.97;;;1.11;100.00
14612;BME280;7392;52.078;11.650;2023-01-30T02:28:09;100404.66;;;1.11;100.00
14612;BME280;7392;52.078;11.650;2023-01-30T02:31:06;100387.16;;;1.10;100.00
14612;BME280;7392;52.078;11.650;2023-01-30T02:33:46;100374.97;;;1.11;100.00
14612;BME280;7392;52.078;11.650;2023-01-30T02:36:29;100373.25;;;1.11;100.00
14612;BME280;7392;52.078;11.650;2023-01-30T02:39:07;100371.56;;;1.14;100.00
14612;BME280;7392;52.078;11.650;2023-01-30T02:41:43;100384.66;;;1.14;100.00
14612;BME280;7392;52.078;11.650;2023-01-30T02:44:20;100360.28;;;1.15;100.00
14612;BME280;7392;52.078;11.650;2023-01-30T02:46:53;100369.00;;;1.15;100.00
14612;BME280;7392;52.078;11.650;2023-01-30T02:49:25;100369.94;;;1.17;100.00
14612;BME280;7392;52.078;11.650;2023-01-30T02:51:56;100360.34;;;1.18;100.00
14612;BME280;7392;52.078;11.650;2023-01-30T02:54:25;100343.88;;;1.20;100.00
14612;BME280;7392;52.078;11.650;2023-01-30T02:56:56;100336.94;;;1.22;100.00
14612;BME280;7392;52.078;11.650;2023-01-30T02:59:28;100338.78;;;1.26;100.00
14612;BME280;7392;52.078;11.650;2023-01-30T03:02:21;100338.00;;;1.29;100.00
14612;BME280;7392;52.078;11.650;2023-01-30T03:05:28;100339.78;;;1.30;100.00
14612;BME280;7392;52.078;11.650;2023-01-30T03:08:06;100318.03;;;1.33;100.00
14612;BME280;7392;52.078;11.650;2023-01-30T03:10:42;100325.16;;;1.37;100.00
14612;BME280;7392;52.078;11.650;2023-01-30T03:13:19;100323.50;;;1.40;100.00
14612;BME280;7392;52.078;11.650;2023-01-30T03:15:54;100306.16;;;1.44;100.00
14612;BME280;7392;52.078;11.650;2023-01-30T03:18:25;100303.69;;;1.50;100.00
14612;BME280;7392;52.078;11.650;2023-01-30T03:20:53;100316.09;;;1.56;100.00
14612;BME280;7392;52.078;11.650;2023-01-30T03:23:21;100314.47;;;1.61;100.00
14612;BME280;7392;52.078;11.650;2023-01-30T03:25:49;100294.44;;;1.63;100.00
14612;BME280;7392;52.078;11.650;2023-01-30T03:28:18;100296.28;;;1.67;100.00
14612;BME280;7392;52.078;11.650;2023-01-30T03:30:48;100290.31;;;1.71;100.00
14612;BME280;7392;52.078;11.650;2023-01-30T03:33:16;100286.03;;;1.75;100.00
14612;BME280;7392;52.078;11.650;2023-01-30T03:35:48;100270.41;;;1.79;100.00
14612;BME280;7392;52.078;11.650;2023-01-30T03:38:16;100258.25;;;1.80;100.00
14612;BME280;7392;52.078;11.650;2023-01-30T03:40:45;100253.88;;;1.80;100.00
14612;BME280;7392;52.078;11.650;2023-01-30T03:43:13;100259.19;;;1.83;100.00
14612;BME280;7392;52.078;11.650;2023-01-30T03:45:41;100260.13;;;1.85;100.00
14612;BME280;7392;52.078;11.650;2023-01-30T03:48:08;100250.50;;;1.86;100.00
14612;BME280;7392;52.078;11.650;2023-01-30T03:50:36;100256.66;;;1.86;100.00
14612;BME280;7392;52.078;11.650;2023-01-30T03:53:05;100246.22;;;1.88;100.00
14612;BME280;7392;52.078;11.650;2023-01-30T03:55:33;100247.19;;;1.92;100.00
14612;BME280;7392;52.078;11.650;2023-01-30T03:58:01;100231.50;;;1.93;100.00
14612;BME280;7392;52.078;11.650;2023-01-30T04:00:31;100237.66;;;1.95;100.00
14612;BME280;7392;52.078;11.650;2023-01-30T04:03:00;100234.22;;;1.98;100.00
14612;BME280;7392;52.078;11.650;2023-01-30T04:05:27;100235.16;;;2.00;100.00
14612;BME280;7392;52.078;11.650;2023-01-30T04:08:01;100214.31;;;2.04;100.00
14612;BME280;7392;52.078;11.650;2023-01-30T04:10:30;100205.72;;;2.12;100.00
14612;BME280;7392;52.078;11.650;2023-01-30T04:12:57;100207.59;;;2.16;100.00
14612;BME280;7392;52.078;11.650;2023-01-30T04:15:25;100205.97;;;2.21;100.00
14612;BME280;7392;52.078;11.650;2023-01-30T04:18:12;100190.38;;;2.27;100.00
14612;BME280;7392;52.078;11.650;2023-01-30T04:20:47;100204.44;;;2.31;100.00
14612;BME280;7392;52.078;11.650;2023-01-30T04:23:19;100202.75;;;2.33;100.00
14612;BME280;7392;52.078;11.650;2023-01-30T04:25:48;100191.47;;;2.37;100.00
14612;BME280;7392;52.078;11.650;2023-01-30T04:28:18;100188.91;;;2.40;100.00
14612;BME280;7392;52.078;11.650;2023-01-30T04:30:46;100189.94;;;2.47;100.00
14612;BME280;7392;52.078;11.650;2023-01-30T04:33:32;100174.22;;;2.47;100.00
14612;BME280;7392;52.078;11.650;2023-01-30T04:36:04;100168.13;;;2.49;100.00
14612;BME280;7392;52.078;11.650;2023-01-30T04:38:33;100164.84;;;2.59;100.00
14612;BME280;7392;52.078;11.650;2023-01-30T04:41:04;100162.25;;;2.61;100.00
14612;BME280;7392;52.078;11.650;2023-01-30T04:43:34;100171.22;;;2.71;100.00
14612;BME280;7392;52.078;11.650;2023-01-30T04:46:19;100156.53;;;2.79;100.00
14612;BME280;7392;52.078;11.650;2023-01-30T04:48:46;100160.03;;;2.79;100.00
14612;BME280;7392;52.078;11.650;2023-01-30T04:51:14;100166.19;;;2.81;100.00
14612;BME280;7392;52.078;11.650;2023-01-30T04:53:41;100168.00;;;2.84;100.00
14612;BME280;7392;52.078;11.650;2023-01-30T04:56:11;100168.91;;;2.86;100.00
14612;BME280;7392;52.078;11.650;2023-01-30T04:58:39;100162.81;;;2.87;100.00
14612;BME280;7392;52.078;11.650;2023-01-30T05:01:12;100147.91;;;2.86;100.00
14612;BME280;7392;52.078;11.650;2023-01-30T05:03:40;100147.13;;;2.92;100.00
14612;BME280;7392;52.078;11.650;2023-01-30T05:06:07;100156.78;;;2.93;100.00
14612;BME280;7392;52.078;11.650;2023-01-30T05:08:35;100140.22;;;2.95;100.00
14612;BME280;7392;52.078;11.650;2023-01-30T05:11:04;100137.59;;;2.94;100.00
14612;BME280;7392;52.078;11.650;2023-01-30T05:13:34;100141.97;;;2.95;100.00
14612;BME280;7392;52.078;11.650;2023-01-30T05:16:01;100134.97;;;2.94;100.00
14612;BME280;7392;52.078;11.650;2023-01-30T05:18:29;100129.72;;;2.94;100.00
14612;BME280;7392;52.078;11.650;2023-01-30T05:21:03;100122.66;;;2.91;100.00
14612;BME280;7392;52.078;11.650;2023-01-30T05:23:30;100125.22;;;2.88;100.00
14612;BME280;7392;52.078;11.650;2023-01-30T05:25:58;100116.38;;;2.83;100.00
14612;BME280;7392;52.078;11.650;2023-01-30T05:28:25;100110.22;;;2.81;100.00
14612;BME280;7392;52.078;11.650;2023-01-30T05:30:59;100118.94;;;2.80;100.00
14612;BME280;7392;52.078;11.650;2023-01-30T05:33:28;100118.94;;;2.80;100.00
14612;BME280;7392;52.078;11.650;2023-01-30T05:35:55;100122.50;;;2.82;100.00
14612;BME280;7392;52.078;11.650;2023-01-30T05:38:24;100108.50;;;2.83;100.00
14612;BME280;7392;52.078;11.650;2023-01-30T05:40:59;100092.72;;;2.81;100.00
14612;BME280;7392;52.078;11.650;2023-01-30T05:43:27;100107.53;;;2.78;100.00
14612;BME280;7392;52.078;11.650;2023-01-30T05:45:58;100102.25;;;2.76;100.00
14612;BME280;7392;52.078;11.650;2023-01-30T05:48:26;100081.25;;;2.73;100.00
14612;BME280;7392;52.078;11.650;2023-01-30T05:50:55;100073.38;;;2.73;100.00
14612;BME280;7392;52.078;11.650;2023-01-30T05:53:25;100077.69;;;2.71;100.00
14612;BME280;7392;52.078;11.650;2023-01-30T05:55:54;100062.66;;;2.62;100.00
14612;BME280;7392;52.078;11.650;2023-01-30T05:58:22;100065.28;;;2.62;100.00
14612;BME280;7392;52.078;11.650;2023-01-30T06:00:50;100069.59;;;2.59;100.00
14612;BME280;7392;52.078;11.650;2023-01-30T06:03:19;100065.16;;;2.55;100.00
14612;BME280;7392;52.078;11.650;2023-01-30T06:05:47;100058.97;;;2.53;100.00
14612;BME280;7392;52.078;11.650;2023-01-30T06:08:14;100065.88;;;2.49;100.00
14612;BME280;7392;52.078;11.650;2023-01-30T06:10:42;100053.59;;;2.45;100.00
14612;BME280;7392;52.078;11.650;2023-01-30T06:13:09;100059.63;;;2.42;100.00
14612;BME280;7392;52.078;11.650;2023-01-30T06:15:37;100040.41;;;2.42;100.00
14612;BME280;7392;52.078;11.650;2023-01-30T06:18:05;100038.63;;;2.39;100.00
14612;BME280;7392;52.078;11.650;2023-01-30T06:20:34;100042.06;;;2.37;100.00
14612;BME280;7392;52.078;11.650;2023-01-30T06:23:01;100050.69;;;2.31;100.00
14612;BME280;7392;52.078;11.650;2023-01-30T06:25:29;100047.19;;;2.32;100.00
14612;BME280;7392;52.078;11.650;2023-01-30T06:27:56;100061.16;;;2.30;100.00
14612;BME280;7392;52.078;11.650;2023-01-30T06:30:24;100061.97;;;2.29;100.00
14612;BME280;7392;52.078;11.650;2023-01-30T06:32:53;100054.09;;;2.27;100.00
14612;BME280;7392;52.078;11.650;2023-01-30T06:35:20;100060.22;;;2.28;100.00
14612;BME280;7392;52.078;11.650;2023-01-30T06:37:49;100064.56;;;2.27;100.00
14612;BME280;7392;52.078;11.650;2023-01-30T06:40:17;100061.06;;;2.27;100.00
14612;BME280;7392;52.078;11.650;2023-01-30T06:42:45;100061.06;;;2.27;100.00
14612;BME280;7392;52.078;11.650;2023-01-30T06:45:13;100060.28;;;2.29;100.00
14612;BME280;7392;52.078;11.650;2023-01-30T06:47:46;100065.53;;;2.31;100.00
14612;BME280;7392;52.078;11.650;2023-01-30T06:50:15;100073.47;;;2.35;100.00
14612;BME280;7392;52.078;11.650;2023-01-30T06:52:44;100081.34;;;2.35;100.00
14612;BME280;7392;52.078;11.650;2023-01-30T06:55:15;100078.84;;;2.41;100.00
14612;BME280;7392;52.078;11.650;2023-01-30T06:57:44;100077.22;;;2.47;100.00
14612;BME280;7392;52.078;11.650;2023-01-30T07:00:14;100071.13;;;2.49;100.00
14612;BME280;7392;52.078;11.650;2023-01-30T07:02:42;100058.03;;;2.49;100.00
14612;BME280;7392;52.078;11.650;2023-01-30T07:05:09;100069.44;;;2.53;100.00
14612;BME280;7392;52.078;11.650;2023-01-30T07:07:38;100075.69;;;2.59;100.00
14612;BME280;7392;52.078;11.650;2023-01-30T07:10:07;100066.22;;;2.66;100.00
14612;BME280;7392;52.078;11.650;2023-01-30T07:12:36;100060.16;;;2.69;100.00
14612;BME280;7392;52.078;11.650;2023-01-30T07:15:05;100065.50;;;2.73;100.00
14612;BME280;7392;52.078;11.650;2023-01-30T07:17:32;100061.22;;;2.78;100.00
14612;BME280;7392;52.078;11.650;2023-01-30T07:20:00;100061.25;;;2.81;100.00
14612;BME280;7392;52.078;11.650;2023-01-30T07:22:28;100053.44;;;2.85;100.00
14612;BME280;7392;52.078;11.650;2023-01-30T07:24:55;100059.59;;;2.87;100.00
14612;BME280;7392;52.078;11.650;2023-01-30T07:27:23;100070.16;;;2.90;100.00
14612;BME280;7392;52.078;11.650;2023-01-30T07:29:51;100068.53;;;2.96;100.00
14612;BME280;7392;52.078;11.650;2023-01-30T07:32:19;100072.94;;;2.97;100.00
14612;BME280;7392;52.078;11.650;2023-01-30T07:34:47;100082.56;;;2.98;100.00
14612;BME280;7392;52.078;11.650;2023-01-30T07:37:14;100078.22;;;2.99;100.00
14612;BME280;7392;52.078;11.650;2023-01-30T07:39:42;100079.97;;;3.00;100.00
14612;BME280;7392;52.078;11.650;2023-01-30T07:42:09;100074.75;;;3.02;100.00
14612;BME280;7392;52.078;11.650;2023-01-30T07:44:37;100077.41;;;3.03;100.00
14612;BME280;7392;52.078;11.650;2023-01-30T07:47:06;100080.09;;;3.06;100.00
14612;BME280;7392;52.078;11.650;2023-01-30T07:49:33;100080.06;;;3.05;100.00
14612;BME280;7392;52.078;11.650;2023-01-30T07:52:01;100094.94;;;3.07;100.00
14612;BME280;7392;52.078;11.650;2023-01-30T07:54:28;100092.31;;;3.07;100.00
14612;BME280;7392;52.078;11.650;2023-01-30T07:56:56;100087.09;;;3.09;100.00
14612;BME280;7392;52.078;11.650;2023-01-30T07:59:23;100095.88;;;3.09;100.00
14612;BME280;7392;52.078;11.650;2023-01-30T08:01:51;100096.78;;;3.11;100.00
14612;BME280;7392;52.078;11.650;2023-01-30T08:04:20;100092.47;;;3.15;100.00
14612;BME280;7392;52.078;11.650;2023-01-30T08:06:48;100091.59;;;3.16;100.00
14612;BME280;7392;52.078;11.650;2023-01-30T08:09:15;100099.50;;;3.17;100.00
14612;BME280;7392;52.078;11.650;2023-01-30T08:11:43;100093.44;;;3.20;100.00
14612;BME280;7392;52.078;11.650;2023-01-30T08:14:10;100097.00;;;3.24;100.00
14612;BME280;7392;52.078;11.650;2023-01-30T08:16:38;100096.16;;;3.25;100.00
14612;BME280;7392;52.078;11.650;2023-01-30T08:19:05;100104.03;;;3.26;100.00
14612;BME280;7392;52.078;11.650;2023-01-30T08:21:34;100105.78;;;3.26;100.00
14612;BME280;7392;52.078;11.650;2023-01-30T08:24:02;100097.13;;;3.30;100.00
14612;BME280;7392;52.078;11.650;2023-01-30T08:26:30;100079.63;;;3.30;100.00
14612;BME280;7392;52.078;11.650;2023-01-30T08:28:58;100079.69;;;3.33;100.00
14612;BME280;7392;52.078;11.650;2023-01-30T08:31:25;100088.47;;;3.35;100.00
14612;BME280;7392;52.078;11.650;2023-01-30T08:33:53;100082.34;;;3.38;100.00
14612;BME280;7392;52.078;11.650;2023-01-30T08:36:20;100098.19;;;3.43;100.00
14612;BME280;7392;52.078;11.650;2023-01-30T08:38:49;100090.38;;;3.46;100.00
14612;BME280;7392;52.078;11.650;2023-01-30T08:41:17;100102.72;;;3.53;100.00
14612;BME280;7392;52.078;11.650;2023-01-30T08:43:44;100101.94;;;3.57;100.00
14612;BME280;7392;52.078;11.650;2023-01-30T08:46:12;100103.75;;;3.61;100.00
14612;BME280;7392;52.078;11.650;2023-01-30T08:48:40;100104.72;;;3.66;100.00
14612;BME280;7392;52.078;11.650;2023-01-30T08:51:15;100111.81;;;3.73;100.00
14612;BME280;7392;52.078;11.650;2023-01-30T08:53:43;100097.03;;;3.80;100.00
14612;BME280;7392;52.078;11.650;2023-01-30T08:56:12;100112.94;;;3.88;100.00
14612;BME280;7392;52.078;11.650;2023-01-30T08:58:40;100106.00;;;3.96;100.00
14612;BME280;7392;52.078;11.650;2023-01-30T09:01:09;100106.13;;;4.04;100.00
14612;BME280;7392;52.078;11.650;2023-01-30T09:03:37;100108.84;;;4.11;100.00
14612;BME280;7392;52.078;11.650;2023-01-30T09:06:04;100110.75;;;4.20;100.00
14612;BME280;7392;52.078;11.650;2023-01-30T09:08:32;100093.38;;;4.31;100.00
14612;BME280;7392;52.078;11.650;2023-01-30T09:11:01;100109.28;;;4.42;100.00
14612;BME280;7392;52.078;11.650;2023-01-30T09:13:30;100110.22;;;4.46;100.00
14612;BME280;7392;52.078;11.650;2023-01-30T09:15:58;100108.47;;;4.48;100.00
14612;BME280;7392;52.078;11.650;2023-01-30T09:18:26;100105.00;;;4.50;100.00
14612;BME280;7392;52.078;11.650;2023-01-30T09:21:01;100097.13;;;4.52;100.00
14612;BME280;7392;52.078;11.650;2023-01-30T09:23:29;100112.94;;;4.55;100.00
14612;BME280;7392;52.078;11.650;2023-01-30T09:25:56;100113.03;;;4.64;100.00
14612;BME280;7392;52.078;11.650;2023-01-30T09:28:25;100104.47;;;4.79;100.00
14612;BME280;7392;52.078;11.650;2023-01-30T09:30:56;100109.84;;;4.90;100.00
14612;BME280;7392;52.078;11.650;2023-01-30T09:33:24;100106.38;;;4.94;100.00
14612;BME280;7392;52.078;11.650;2023-01-30T09:35:52;100107.34;;;5.05;100.00
14612;BME280;7392;52.078;11.650;2023-01-30T09:38:20;100098.72;;;5.19;100.00
14612;BME280;7392;52.078;11.650;2023-01-30T09:40:59;100101.47;;;5.30;100.00
14612;BME280;7392;52.078;11.650;2023-01-30T09:43:43;100098.97;;;5.43;100.00
14612;BME280;7392;52.078;11.650;2023-01-30T09:46:25;100103.41;;;5.52;100.00
14612;BME280;7392;52.078;11.650;2023-01-30T09:49:04;100122.75;;;5.56;100.00
14612;BME280;7392;52.078;11.650;2023-01-30T09:51:52;100118.34;;;5.52;97.22
14612;BME280;7392;52.078;11.650;2023-01-30T09:54:28;100117.41;;;5.48;96.58
14612;BME280;7392;52.078;11.650;2023-01-30T09:57:07;100116.50;;;5.43;96.29
14612;BME280;7392;52.078;11.650;2023-01-30T09:59:52;100108.59;;;5.40;95.06
14612;BME280;7392;52.078;11.650;2023-01-30T10:02:30;100120.84;;;5.36;94.37
14612;BME280;7392;52.078;11.650;2023-01-30T10:05:03;100113.78;;;5.34;93.69
14612;BME280;7392;52.078;11.650;2023-01-30T10:07:41;100110.25;;;5.32;92.70
14612;BME280;7392;52.078;11.650;2023-01-30T10:10:18;100112.06;;;5.39;93.52
14612;BME280;7392;52.078;11.650;2023-01-30T10:12:54;100116.63;;;5.57;93.97
14612;BME280;7392;52.078;11.650;2023-01-30T10:15:38;100109.69;;;5.70;92.82
14612;BME280;7392;52.078;11.650;2023-01-30T10:18:50;100101.00;;;5.81;91.31
14612;BME280;7392;52.078;11.650;2023-01-30T10:21:29;100101.16;;;6.00;91.86
14612;BME280;7392;52.078;11.650;2023-01-30T10:27:10;100095.19;;;6.36;90.54
14612;BME280;7392;52.078;11.650;2023-01-30T10:29:40;100091.72;;;6.47;90.17
14612;BME280;7392;52.078;11.650;2023-01-30T10:32:14;100089.06;;;6.44;88.86
14612;BME280;7392;52.078;11.650;2023-01-30T10:34:46;100091.66;;;6.34;87.58
14612;BME280;7392;52.078;11.650;2023-01-30T10:37:21;100097.75;;;6.21;87.42
14612;BME280;7392;52.078;11.650;2023-01-30T10:39:57;100093.28;;;6.08;85.90
14612;BME280;7392;52.078;11.650;2023-01-30T10:42:35;100100.16;;;5.87;86.28
14612;BME280;7392;52.078;11.650;2023-01-30T10:45:09;100082.56;;;5.85;88.04
14612;BME280;7392;52.078;11.650;2023-01-30T10:47:47;100070.28;;;5.88;89.38
14612;BME280;7392;52.078;11.650;2023-01-30T10:50:22;100086.13;;;5.88;89.08
14612;BME280;7392;52.078;11.650;2023-01-30T10:52:56;100070.34;;;5.93;89.34
14612;BME280;7392;52.078;11.650;2023-01-30T10:55:34;100068.75;;;6.15;89.88
14612;BME280;7392;52.078;11.650;2023-01-30T10:58:11;100061.75;;;6.26;89.83
14612;BME280;7392;52.078;11.650;2023-01-30T11:00:44;100051.25;;;6.35;89.76
14612;BME280;7392;52.078;11.650;2023-01-30T11:03:20;100069.72;;;6.40;88.22
14612;BME280;7392;52.078;11.650;2023-01-30T11:05:50;100066.19;;;6.40;87.70
14612;BME280;7392;52.078;11.650;2023-01-30T11:08:21;100081.13;;;6.36;87.09
14612;BME280;7392;52.078;11.650;2023-01-30T11:10:50;100064.38;;;6.26;86.69
14612;BME280;7392;52.078;11.650;2023-01-30T11:13:19;100058.19;;;6.20;86.81
14612;BME280;7392;52.078;11.650;2023-01-30T11:15:49;100066.09;;;6.20;86.89
14612;BME280;7392;52.078;11.650;2023-01-30T11:18:19;100081.91;;;6.18;87.09
14612;BME280;7392;52.078;11.650;2023-01-30T11:21:12;100040.63;;;6.18;86.02
14612;BME280;7392;52.078;11.650;2023-01-30T11:23:44;100041.53;;;6.30;86.20
14612;BME280;7392;52.078;11.650;2023-01-30T11:26:19;100041.59;;;6.48;86.47
14612;BME280;7392;52.078;11.650;2023-01-30T11:28:47;100029.34;;;6.61;86.21
14612;BME280;7392;52.078;11.650;2023-01-30T11:31:17;100022.31;;;6.76;86.39
14612;BME280;7392;52.078;11.650;2023-01-30T11:34:05;100006.50;;;6.76;82.90
14612;BME280;7392;52.078;11.650;2023-01-30T11:36:40;100023.22;;;6.79;81.92
14612;BME280;7392;52.078;11.650;2023-01-30T11:39:19;99999.47;;;6.79;82.08
14612;BME280;7392;52.078;11.650;2023-01-30T11:42:09;99990.66;;;6.86;81.88
14612;BME280;7392;52.078;11.650;2023-01-30T11:44:39;100007.41;;;6.95;80.14
14612;BME280;7392;52.078;11.650;2023-01-30T11:47:14;100004.75;;;6.98;79.42
14612;BME280;7392;52.078;11.650;2023-01-30T11:49:47;100000.38;;;7.04;78.54
14612;BME280;7392;52.078;11.650;2023-01-30T11:52:34;100003.00;;;7.04;78.47
14612;BME280;7392;52.078;11.650;2023-01-30T11:55:06;99988.91;;;7.13;79.55
14612;BME280;7392;52.078;11.650;2023-01-30T11:57:39;99993.31;;;7.20;80.01
14612;BME280;7392;52.078;11.650;2023-01-30T12:00:16;99986.28;;;7.15;77.99
14612;BME280;7392;52.078;11.650;2023-01-30T12:02:46;99982.75;;;7.08;78.80
14612;BME280;7392;52.078;11.650;2023-01-30T12:05:23;99987.16;;;7.12;79.50
14612;BME280;7392;52.078;11.650;2023-01-30T12:08:11;99981.00;;;7.19;78.83
14612;BME280;7392;52.078;11.650;2023-01-30T12:10:40;99986.28;;;7.19;78.36
14612;BME280;7392;52.078;11.650;2023-01-30T12:13:14;99980.13;;;7.13;78.27
14612;BME280;7392;52.078;11.650;2023-01-30T12:15:47;99985.38;;;7.02;78.24
14612;BME280;7392;52.078;11.650;2023-01-30T12:18:22;100000.38;;;6.92;78.92
14612;BME280;7392;52.078;11.650;2023-01-30T12:20:56;99997.69;;;6.81;81.24
14612;BME280;7392;52.078;11.650;2023-01-30T12:23:32;100009.97;;;6.62;85.28
14612;BME280;7392;52.078;11.650;2023-01-30T12:26:06;99995.84;;;6.37;87.30
14612;BME280;7392;52.078;11.650;2023-01-30T12:28:43;99990.47;;;6.11;89.14
14612;BME280;7392;52.078;11.650;2023-01-30T12:31:18;100000.88;;;5.91;91.82
14612;BME280;7392;52.078;11.650;2023-01-30T12:33:47;99991.16;;;5.80;93.35
14612;BME280;7392;52.078;11.650;2023-01-30T12:36:23;99975.31;;;5.70;94.99
14612;BME280;7392;52.078;11.650;2023-01-30T12:39:05;99971.75;;;5.60;96.36
14612;BME280;7392;52.078;11.650;2023-01-30T12:42:02;99955.91;;;5.52;97.23
14612;BME280;7392;52.078;11.650;2023-01-30T12:44:55;99952.38;;;5.47;98.84
14612;BME280;7392;52.078;11.650;2023-01-30T12:47:35;99952.41;;;5.52;99.76
14612;BME280;7392;52.078;11.650;2023-01-30T12:50:20;99939.28;;;5.66;99.79
14612;BME280;7392;52.078;11.650;2023-01-30T12:53:01;99941.91;;;5.69;97.79
14612;BME280;7392;52.078;11.650;2023-01-30T12:55:38;99931.44;;;5.76;97.65
14612;BME280;7392;52.078;11.650;2023-01-30T12:58:15;99932.34;;;5.91;97.33
14612;BME280;7392;52.078;11.650;2023-01-30T13:00:58;99942.97;;;5.97;96.58
14612;BME280;7392;52.078;11.650;2023-01-30T13:03:34;99932.50;;;6.17;94.11
14612;BME280;7392;52.078;11.650;2023-01-30T13:06:13;99961.53;;;6.26;91.94
14612;BME280;7392;52.078;11.650;2023-01-30T13:08:54;99984.41;;;6.33;89.61
14612;BME280;7392;52.078;11.650;2023-01-30T13:11:39;99976.47;;;6.23;89.75
14612;BME280;7392;52.078;11.650;2023-01-30T13:14:14;99976.44;;;6.12;90.48
14612;BME280;7392;52.078;11.650;2023-01-30T13:16:57;99990.44;;;5.98;91.77
14612;BME280;7392;52.078;11.650;2023-01-30T13:19:30;99975.38;;;5.84;93.79
14612;BME280;7392;52.078;11.650;2023-01-30T13:22:12;99989.34;;;5.70;95.26